KHOP/HOP METAR and TAF weather

Enter ICAO airport designator
Station Type Date Time Source
KHOP METAR 2024/05/28 23:55 UTC NOAA

KHOP 282355Z AUTO 30009KT 10SM CLR 26/09 A3001 RMK AO2 SLP160 T02600093 10282 20259 58002


Station Type Date Time Source
KHOP Decoded METAR 2024/05/28 23:55 UTC NOAA

Fort Campbell U. S. Army Airfield, KY, United States (KHOP) 36-40N 087-30W 174M
May 28, 2024 - 07:55 PM EDT / 2024.05.28 2355 UTC
Wind: from the WNW (300 degrees) at 10 MPH (9 KT):0
Visibility: 10 mile(s):0
Sky conditions: clear
Temperature: 78.8 F (26.0 C)
Dew Point: 48.7 F (9.3 C)
Relative Humidity: 34%
Pressure (altimeter): 30.01 in. Hg (1016 hPa)
Pressure tendency: 0.01 inches (0.2 hPa) lower than three hours ago
ob: KHOP 282355Z AUTO 30009KT 10SM CLR 26/09 A3001 RMK AO2 SLP160 T02600093 10282 20259 58002
cycle: 0

Station Type Date Time Source
KHOP TAF 2024/05/29 00:15 UTC NOAA